Palmyra, Pennsylvania
Current Conditions -  °F | °C
As of 3:07 AM on Friday 24 Oct 2014 (Local Time) from KMUI Reporting Station
Overcast Overcast  
Wind Chill: 57°   Ceiling: 3400
Heat Index: 57°   Visibility: 10mi
Dew Point: 45°   Wind: 12mph
Humidity: 63%   Direction: 320°NW
Pressure: 29.88"   Gusts: 21mph
Location:  40.31°N, 76.59°W
Report Text: KMUI 240707Z AUTO 32010G18KT 270V350 10SM OVC034 14/07 A2988 RMK AO2 WSHFT 02
Loading
Personal Weather Stations






























Interactive Weather Map
Tropical Storm Tracking
New forecast layout! Learn more

10-Day Weather Forecast

Advertisements
Track Severe Weather on mobile